MET'MAP v2.0
soon released !

Expected late october,
this new version will be
more efficient, smarter,
and hosted on a brand new
server x3 powerfull...
...and still free !


Not compatible ?
Try the mobile version !

LOG IN : | Subscribe | Disclaimer | Who is Orbifly ? |
ICAO code :

TAF - LFKS Solenzara - 12 Dec 2019 01:16 UTC
Data Sources :     NOAA   


- Airport Elevation : 28 ft
- IATA code : SOZ
- No reported NOTAMs.


LFKS - Solenzara

Latest METAR recorded : 2019/12/12 00:00 LFKS 120000Z AUTO 26006KT 240V300 9999 SCT070/// SCT092/// OVC130/// ///TCU 10/05 Q1007
NO TAF


MET'MAP, your aeronautical weather chart ! - Copyright ORBIFLY December 2007

Programming & Development : Alexandra Zaïnal
Co-Developer : Marc-Olivier Méhu
Technical & hardware support : Manuel Goepfert
Concept & Financing : Baudouin d'Aumeries